Time,TemperatureF,DewpointF,PressureIn,WindDirection,WindDirectionDegrees,WindSpeedMPH,WindSpeedGustMPH,Humidity,HourlyPrecipIn,Conditions,Clouds,dailyrainin,SoftwareType,DateUTC
2013-11-02 00:04:00,47.5,31.0,29.96,SE,145,6.0,14.0,54,0.00,,,0.00,weatherlink.com 1.10,2013-11-02 07:04:00,
2013-11-02 00:19:00,47.5,31.0,29.95,SE,125,4.0,10.0,54,0.00,,,0.00,weatherlink.com 1.10,2013-11-02 07:19:00,
2013-11-02 00:34:00,47.7,32.0,29.95,ESE,120,4.0,9.0,55,0.00,,,0.00,weatherlink.com 1.10,2013-11-02 07:34:00,
2013-11-02 00:49:00,47.8,32.0,29.94,East,82,4.0,10.0,55,0.00,,,0.00,weatherlink.com 1.10,2013-11-02 07:49:00,
2013-11-02 01:04:00,47.7,32.0,29.94,East,97,7.0,10.0,55,0.00,,,0.00,weatherlink.com 1.10,2013-11-02 08:04:00,
2013-11-02 01:19:00,47.2,32.0,29.93,SSE,153,0.0,2.0,56,0.00,,,0.00,weatherlink.com 1.10,2013-11-02 08:19:00,
2013-11-02 01:35:00,47.1,32.0,29.91,SE,142,0.0,9.0,57,0.00,,,0.00,weatherlink.com 1.10,2013-11-02 08:35:00,
2013-11-02 01:50:00,46.8,32.0,29.90,SW,228,5.0,10.0,57,0.00,,,0.00,weatherlink.com 1.10,2013-11-02 08:50:00,
2013-11-02 02:05:00,46.1,32.0,29.89,NNE,18,0.0,2.0,59,0.00,,,0.00,weatherlink.com 1.10,2013-11-02 09:05:00,
2013-11-02 02:20:00,45.6,33.0,29.86,ESE,102,5.0,10.0,62,0.00,,,0.00,weatherlink.com 1.10,2013-11-02 09:20:00,
2013-11-02 02:35:00,47.0,34.0,29.84,SE,146,9.0,17.0,60,0.00,,,0.00,weatherlink.com 1.10,2013-11-02 09:35:00,
2013-11-02 02:50:00,47.5,34.0,29.83,SE,134,5.0,18.0,59,0.00,,,0.00,weatherlink.com 1.10,2013-11-02 09:50:00,
2013-11-02 03:05:00,47.0,34.0,29.82,SE,124,2.0,14.0,60,0.00,,,0.00,weatherlink.com 1.10,2013-11-02 10:05:00,
2013-11-02 03:20:00,45.8,34.0,29.82,NE,49,1.0,9.0,64,0.00,,,0.00,weatherlink.com 1.10,2013-11-02 10:20:00,
2013-11-02 03:35:00,45.5,35.0,29.81,SE,134,3.0,9.0,66,0.00,,,0.00,weatherlink.com 1.10,2013-11-02 10:35:00,
2013-11-02 03:50:00,45.2,35.0,29.80,NE,55,0.0,5.0,68,0.00,,,0.00,weatherlink.com 1.10,2013-11-02 10:50:00,
2013-11-02 04:05:00,45.0,36.0,29.79,East,90,2.0,5.0,70,0.00,,,0.00,weatherlink.com 1.10,2013-11-02 11:05:00,
2013-11-02 04:20:00,45.1,36.0,29.76,SE,126,6.0,13.0,71,0.00,,,0.00,weatherlink.com 1.10,2013-11-02 11:20:00,
2013-11-02 04:35:00,45.9,37.0,29.76,NNW,341,2.0,13.0,70,0.00,,,0.00,weatherlink.com 1.10,2013-11-02 11:35:00,
2013-11-02 04:50:00,44.2,36.0,29.77,NE,37,1.0,11.0,72,0.00,,,0.00,weatherlink.com 1.10,2013-11-02 11:50:00,
2013-11-02 05:05:00,45.8,35.0,29.75,SE,140,2.0,10.0,67,0.00,,,0.00,weatherlink.com 1.10,2013-11-02 12:05:00,
2013-11-02 05:20:00,46.4,35.0,29.73,South,176,7.0,7.0,65,0.00,,,0.00,weatherlink.com 1.10,2013-11-02 12:20:00,
2013-11-02 05:35:00,46.4,35.0,29.72,North,6,2.0,5.0,65,0.00,,,0.00,weatherlink.com 1.10,2013-11-02 12:35:00,
2013-11-02 05:50:00,45.3,35.0,29.71,North,360,1.0,3.0,68,0.00,,,0.00,weatherlink.com 1.10,2013-11-02 12:50:00,
2013-11-02 06:05:00,46.7,35.0,29.69,SE,127,3.0,10.0,65,0.00,,,0.00,weatherlink.com 1.10,2013-11-02 13:05:00,
2013-11-02 06:20:00,46.2,36.0,29.68,East,85,3.0,17.0,68,0.01,,,0.01,weatherlink.com 1.10,2013-11-02 13:20:00,
2013-11-02 06:35:00,45.7,37.0,29.67,WSW,252,3.0,9.0,71,0.02,,,0.02,weatherlink.com 1.10,2013-11-02 13:35:00,
2013-11-02 06:50:00,45.1,37.0,29.66,WSW,243,1.0,12.0,74,0.03,,,0.03,weatherlink.com 1.10,2013-11-02 13:50:00,
2013-11-02 07:06:00,43.5,37.0,29.65,NNW,337,0.0,3.0,77,0.04,,,0.04,weatherlink.com 1.10,2013-11-02 14:06:00,
2013-11-02 07:21:00,43.8,37.0,29.66,NNW,333,1.0,3.0,78,0.05,,,0.06,weatherlink.com 1.10,2013-11-02 14:21:00,
2013-11-02 07:36:00,43.6,38.0,29.64,SE,141,0.0,5.0,79,0.05,,,0.07,weatherlink.com 1.10,2013-11-02 14:36:00,
2013-11-02 07:51:00,43.7,38.0,29.64,West,281,1.0,2.0,79,0.05,,,0.08,weatherlink.com 1.10,2013-11-02 14:51:00,
2013-11-02 08:06:00,43.2,38.0,29.64,SE,142,1.0,8.0,81,0.09,,,0.13,weatherlink.com 1.10,2013-11-02 15:06:00,
2013-11-02 08:21:00,42.8,38.0,29.64,West,274,1.0,2.0,82,0.10,,,0.16,weatherlink.com 1.10,2013-11-02 15:21:00,
2013-11-02 08:36:00,43.1,38.0,29.64,SW,218,5.0,8.0,83,0.10,,,0.17,weatherlink.com 1.10,2013-11-02 15:36:00,
2013-11-02 08:51:00,43.4,39.0,29.64,SW,218,3.0,9.0,83,0.12,,,0.20,weatherlink.com 1.10,2013-11-02 15:51:00,
2013-11-02 09:06:00,44.4,40.0,29.62,SSW,197,15.0,22.0,83,0.10,,,0.23,weatherlink.com 1.10,2013-11-02 16:06:00,
2013-11-02 09:21:00,45.0,40.0,29.61,SSE,166,17.0,27.0,82,0.09,,,0.25,weatherlink.com 1.10,2013-11-02 16:21:00,
2013-11-02 09:36:00,45.4,40.0,29.61,South,170,11.0,32.0,81,0.10,,,0.27,weatherlink.com 1.10,2013-11-02 16:36:00,
2013-11-02 09:51:00,45.6,40.0,29.60,South,174,31.0,35.0,82,0.07,,,0.27,weatherlink.com 1.10,2013-11-02 16:51:00,
2013-11-02 10:06:00,45.9,41.0,29.59,SSE,163,25.0,34.0,83,0.04,,,0.27,weatherlink.com 1.10,2013-11-02 17:06:00,
2013-11-02 10:21:00,45.5,41.0,29.58,SSW,204,22.0,36.0,84,0.02,,,0.27,weatherlink.com 1.10,2013-11-02 17:21:00,
2013-11-02 10:36:00,45.4,41.0,29.59,South,177,17.0,32.0,85,0.00,,,0.27,weatherlink.com 1.10,2013-11-02 17:36:00,
2013-11-02 10:51:00,45.6,41.0,29.61,SSW,192,10.0,31.0,85,0.00,,,0.27,weatherlink.com 1.10,2013-11-02 17:51:00,
2013-11-02 11:06:00,45.6,42.0,29.61,SSW,207,15.0,23.0,86,0.00,,,0.27,weatherlink.com 1.10,2013-11-02 18:06:00,
2013-11-02 14:16:00,45.9,39.0,29.55,SSW,204,10.0,33.0,78,0.00,,,0.27,weatherlink.com 1.10,2013-11-02 21:16:00,
2013-11-02 14:22:00,45.9,40.0,29.54,South,184,16.0,26.0,79,0.00,,,0.27,weatherlink.com 1.10,2013-11-02 21:22:00,
2013-11-02 14:37:00,46.2,39.0,29.54,South,188,14.0,36.0,77,0.00,,,0.27,weatherlink.com 1.10,2013-11-02 21:37:00,
2013-11-02 14:52:00,46.3,39.0,29.54,South,177,14.0,25.0,77,0.00,,,0.27,weatherlink.com 1.10,2013-11-02 21:52:00,
2013-11-02 15:07:00,46.7,38.0,29.54,SSW,197,16.0,29.0,73,0.00,,,0.27,weatherlink.com 1.10,2013-11-02 22:07:00,
2013-11-02 15:22:00,47.0,38.0,29.54,SSW,211,15.0,35.0,71,0.00,,,0.27,weatherlink.com 1.10,2013-11-02 22:22:00,
2013-11-02 15:37:00,46.6,38.0,29.55,SSW,211,16.0,36.0,71,0.00,,,0.27,weatherlink.com 1.10,2013-11-02 22:37:00,
2013-11-02 15:52:00,46.1,37.0,29.55,South,183,21.0,43.0,71,0.00,,,0.27,weatherlink.com 1.10,2013-11-02 22:52:00,
2013-11-02 16:07:00,46.0,36.0,29.57,SSW,211,13.0,33.0,69,0.00,,,0.27,weatherlink.com 1.10,2013-11-02 23:07:00,
2013-11-02 16:22:00,45.3,35.0,29.57,SSW,207,20.0,35.0,68,0.00,,,0.27,weatherlink.com 1.10,2013-11-02 23:22:00,
2013-11-02 16:37:00,44.9,35.0,29.57,SSE,167,22.0,44.0,69,0.00,,,0.27,weatherlink.com 1.10,2013-11-02 23:37:00,
2013-11-02 16:52:00,44.7,34.0,29.58,South,169,15.0,39.0,67,0.00,,,0.27,weatherlink.com 1.10,2013-11-02 23:52:00,
2013-11-02 17:07:00,44.3,34.0,29.59,SSW,198,22.0,38.0,68,0.00,,,0.27,weatherlink.com 1.10,2013-11-03 00:07:00,
2013-11-02 17:22:00,44.0,34.0,29.60,SSE,166,18.0,39.0,67,0.00,,,0.27,weatherlink.com 1.10,2013-11-03 00:22:00,
2013-11-02 17:37:00,43.6,31.0,29.60,South,174,19.0,38.0,62,0.00,,,0.27,weatherlink.com 1.10,2013-11-03 00:37:00,
2013-11-02 17:52:00,43.0,31.0,29.61,South,185,17.0,31.0,63,0.00,,,0.27,weatherlink.com 1.10,2013-11-03 00:52:00,
2013-11-02 18:07:00,42.3,32.0,29.62,South,191,13.0,35.0,67,0.00,,,0.27,weatherlink.com 1.10,2013-11-03 01:07:00,
2013-11-02 18:22:00,42.1,31.0,29.61,SSW,211,21.0,36.0,66,0.00,,,0.27,weatherlink.com 1.10,2013-11-03 01:22:00,
2013-11-02 18:37:00,41.8,31.0,29.61,SSW,200,18.0,39.0,66,0.00,,,0.27,weatherlink.com 1.10,2013-11-03 01:37:00,
2013-11-02 18:53:00,41.5,30.0,29.62,SSW,200,18.0,33.0,65,0.00,,,0.27,weatherlink.com 1.10,2013-11-03 01:53:00,
2013-11-02 19:08:00,41.2,30.0,29.62,SSW,194,24.0,36.0,64,0.00,,,0.27,weatherlink.com 1.10,2013-11-03 02:08:00,
2013-11-02 19:23:00,40.8,30.0,29.63,SSE,163,28.0,32.0,66,0.00,,,0.27,weatherlink.com 1.10,2013-11-03 02:23:00,
2013-11-02 19:38:00,40.3,30.0,29.64,SSW,201,28.0,36.0,67,0.00,,,0.27,weatherlink.com 1.10,2013-11-03 02:38:00,
2013-11-02 19:53:00,39.7,31.0,29.65,South,169,20.0,40.0,70,0.00,,,0.27,weatherlink.com 1.10,2013-11-03 02:53:00,
2013-11-02 20:08:00,39.2,31.0,29.65,SSW,194,15.0,38.0,71,0.00,,,0.27,weatherlink.com 1.10,2013-11-03 03:08:00,
2013-11-02 20:23:00,38.6,31.0,29.66,SSW,193,25.0,34.0,73,0.00,,,0.27,weatherlink.com 1.10,2013-11-03 03:23:00,
2013-11-02 20:38:00,38.4,30.0,29.66,South,187,21.0,38.0,73,0.00,,,0.27,weatherlink.com 1.10,2013-11-03 03:38:00,
2013-11-02 20:53:00,38.0,31.0,29.67,SSE,155,17.0,37.0,75,0.00,,,0.27,weatherlink.com 1.10,2013-11-03 03:53:00,
2013-11-02 21:08:00,37.5,31.0,29.68,SSW,195,13.0,33.0,77,0.00,,,0.27,weatherlink.com 1.10,2013-11-03 04:08:00,
2013-11-02 21:23:00,36.6,31.0,29.69,SSW,207,12.0,35.0,79,0.00,,,0.27,weatherlink.com 1.10,2013-11-03 04:23:00,
2013-11-02 21:38:00,36.0,31.0,29.70,South,190,13.0,24.0,81,0.00,,,0.27,weatherlink.com 1.10,2013-11-03 04:38:00,
2013-11-02 21:53:00,35.9,31.0,29.70,SSW,193,16.0,31.0,81,0.00,,,0.27,weatherlink.com 1.10,2013-11-03 04:53:00,
2013-11-02 22:08:00,35.6,31.0,29.72,South,181,11.0,36.0,83,0.01,,,0.28,weatherlink.com 1.10,2013-11-03 05:08:00,
2013-11-02 22:23:00,35.2,31.0,29.72,South,186,16.0,29.0,84,0.02,,,0.29,weatherlink.com 1.10,2013-11-03 05:23:00,
2013-11-02 22:38:00,34.9,31.0,29.73,SSW,211,11.0,21.0,84,0.03,,,0.30,weatherlink.com 1.10,2013-11-03 05:38:00,
2013-11-02 22:53:00,34.3,30.0,29.73,SW,226,11.0,23.0,85,0.04,,,0.31,weatherlink.com 1.10,2013-11-03 05:53:00,
2013-11-02 23:08:00,34.1,30.0,29.73,SSW,203,13.0,23.0,85,0.04,,,0.32,weatherlink.com 1.10,2013-11-03 06:08:00,
2013-11-02 23:23:00,34.2,30.0,29.73,South,169,22.0,23.0,85,0.04,,,0.33,weatherlink.com 1.10,2013-11-03 06:23:00,
2013-11-02 23:38:00,33.8,30.0,29.73,SSW,199,10.0,32.0,85,0.03,,,0.33,weatherlink.com 1.10,2013-11-03 06:38:00,
2013-11-02 23:53:00,33.6,30.0,29.73,SSW,203,10.0,25.0,85,0.02,,,0.33,weatherlink.com 1.10,2013-11-03 06:53:00,